• Join FlightAware (Why Join?)
  • Login
  • US Flag 
04:51PM EDT


 

Airport Tracker/Info


-or-


 

Live Flight TrackerFlight Track Log ✈ BER7688 ✈ 30-Apr-2013 ✈ LEPA / PMI - LEAS / OVD

Flight Track Log - Related Links

Times and Time Zones

All times are in EDT time to prevent confusion due to time zone crossing. See the BER7688 flight status page for this flight to view local times or setup timezone preferences in your user account.

Time Position Orientation Groundspeed Altitude Reporting Facility
EDT Latitude Longitude Course Direction KTS MPH feet Rate Location/Type
09:17AM 40.3351 1.2124 304° West  Level Estimated
09:18AM 40.3946 1.0935 303° West  Level Estimated
09:19AM 40.4539 0.9744 303° West  Level Estimated
09:20AM 40.5131 0.8551 303° West  Level Estimated
09:21AM 40.5721 0.7356 303° West  Level Estimated
09:22AM 40.6311 0.6159 303° West  Level Estimated
09:23AM 40.6899 0.4960 303° West  Level Estimated
09:24AM 40.7486 0.3758 303° West  Level Estimated
09:25AM 40.8071 0.2555 303° West  Level Estimated
09:26AM 40.8656 0.1349 303° West  Level Estimated
09:27AM 40.9239 0.0141 303° West  Level Estimated
09:28AM 40.9821 -0.1068 303° West  Level Estimated
09:29AM 41.0401 -0.2280 302° West  Level Estimated
09:30AM 41.0981 -0.3495 302° West  Level Estimated
09:31AM 41.1559 -0.4711 302° West  Level Estimated
09:32AM 41.2136 -0.5929 302° West  Level Estimated
09:33AM 41.2711 -0.7150 302° West  Level Estimated
09:34AM 41.3285 -0.8373 302° West  Level Estimated
09:35AM 41.3858 -0.9598 302° West  Level Estimated
09:36AM 41.4430 -1.0825 302° West  Level Estimated
09:37AM 41.5000 -1.2054 302° West  Level Estimated
09:38AM 41.5569 -1.3285 302° West  Level Estimated
09:39AM 41.6137 -1.4519 302° West  Level Estimated
09:40AM 41.6703 -1.5755 302° West  Level Estimated
09:41AM 41.7268 -1.6992 301° West  Level Estimated
09:42AM 41.7832 -1.8233 301° West  Level Estimated
09:43AM 41.8394 -1.9475 301° West  Level Estimated
09:44AM 41.8955 -2.0719 301° West  Level Estimated
09:45AM 41.9515 -2.1966 301° West  Level Estimated
09:46AM 42.0073 -2.3215 301° West  Level Estimated
09:47AM 42.0630 -2.4466 301° West  Level Estimated
09:48AM 42.1186 -2.5719 301° West  Level Estimated
09:49AM 42.1740 -2.6974 301° West  Level Estimated
09:50AM 42.2293 -2.8232 301° West  Level Estimated
09:51AM 42.2844 -2.9492 301° West  Level Estimated
09:52AM 42.3395 -3.0754 301° West  Level Estimated
09:53AM 42.3943 -3.2018 300° West  Level Estimated
09:54AM 42.4491 -3.3284 300° West  Level Estimated
09:55AM 42.5036 -3.4553 300° West  Level Estimated
09:56AM 42.5581 -3.5824 300° West  Level Estimated
09:57AM 42.6124 -3.7097 300° West  Level Estimated
09:58AM 42.6666 -3.8372 300° West  Level Estimated
09:59AM 42.7206 -3.9650 300° West  Level Estimated
10:00AM 42.7745 -4.0929 300° West  Level Estimated
10:01AM 42.8282 -4.2211 300° West  Level Estimated
10:02AM 42.8818 -4.3495 300° West  Level Estimated
10:03AM 42.9353 -4.4782 300° West  Level Estimated
10:04AM 42.9886 -4.6070 300° West  Level Estimated
10:05AM 43.0418 -4.7361 299° West  Level Estimated
10:06AM 43.0948 -4.8654 299° West  Level Estimated
10:07AM 43.1477 -4.9950 299° West  Level Estimated
10:08AM 43.2004 -5.1247 299° West  Level Estimated
10:09AM 43.2530 -5.2547 299° West  Level Estimated
10:10AM 43.3055 -5.3849 299° West  Level Estimated
10:11AM 43.3577 -5.5153 299° West  Level Estimated
10:12AM 43.4099 -5.6460 299° West  Level Estimated
10:13AM 43.4619 -5.7769 299° West  Level Estimated
10:14AM 43.5137 -5.9080 299° West  Level Estimated
10:15AM 43.5636 -6.0346 299° West  Level Estimated
10:16AM 43.5636 -6.0346 206° Southwest  Level Estimated
10:17AM 43.5636 -6.0346 206° Southwest  Level Estimated
10:18AM 43.5636 -6.0346 206° Southwest  Level Estimated
10:19AM 43.5636 -6.0346 206° Southwest  Level Estimated
10:20AM 43.5636 -6.0346 206° Southwest  Level Estimated
10:21AM 43.5636 -6.0346 206° Southwest  Level Estimated
10:22AM 43.5636 -6.0346 206° Southwest  Level Estimated
10:23AM 43.5636 -6.0346 206° Southwest  Level Estimated
10:24AM 43.5636 -6.0346 206° Southwest  Level Estimated
10:25AM 43.5636 -6.0346 206° Southwest  Level Estimated
10:26AM 43.5636 -6.0346 206° Southwest  Level Estimated
10:27AM 43.5636 -6.0346 206° Southwest  Level Estimated
10:28AM 43.5636 -6.0346 206° Southwest  Level Estimated
10:29AM 43.5636 -6.0346 206° Southwest  Level Estimated
10:30AM 43.5636 -6.0346 206° Southwest  Level Estimated
10:31AM 43.5636 -6.0346 206° Southwest  Level Estimated